sensor_id;sensor_type;location;lat;lon;timestamp;P1;durP1;ratioP1;P2;durP2;ratioP2
52025;SDS011;38041;40.058;18.328;2022-10-16T00:01:26;19.93;;;12.40;;
52025;SDS011;38041;40.058;18.328;2022-10-16T00:03:54;19.17;;;11.57;;
52025;SDS011;38041;40.058;18.328;2022-10-16T00:06:22;19.20;;;12.60;;
52025;SDS011;38041;40.058;18.328;2022-10-16T00:08:50;20.30;;;12.40;;
52025;SDS011;38041;40.058;18.328;2022-10-16T00:11:23;14.77;;;10.50;;
52025;SDS011;38041;40.058;18.328;2022-10-16T00:13:52;16.53;;;10.60;;
52025;SDS011;38041;40.058;18.328;2022-10-16T00:16:21;15.90;;;11.10;;
52025;SDS011;38041;40.058;18.328;2022-10-16T00:18:49;16.83;;;10.60;;
52025;SDS011;38041;40.058;18.328;2022-10-16T00:21:18;16.60;;;11.13;;
52025;SDS011;38041;40.058;18.328;2022-10-16T00:24:06;17.27;;;11.57;;
52025;SDS011;38041;40.058;18.328;2022-10-16T00:26:35;19.17;;;11.17;;
52025;SDS011;38041;40.058;18.328;2022-10-16T00:29:03;18.67;;;11.30;;
52025;SDS011;38041;40.058;18.328;2022-10-16T00:31:31;20.63;;;11.83;;
52025;SDS011;38041;40.058;18.328;2022-10-16T00:33:59;19.13;;;11.00;;
52025;SDS011;38041;40.058;18.328;2022-10-16T00:36:27;20.57;;;11.73;;
52025;SDS011;38041;40.058;18.328;2022-10-16T00:38:55;21.63;;;12.87;;
52025;SDS011;38041;40.058;18.328;2022-10-16T00:41:24;14.70;;;11.27;;
52025;SDS011;38041;40.058;18.328;2022-10-16T00:46:23;22.57;;;12.97;;
52025;SDS011;38041;40.058;18.328;2022-10-16T00:48:57;19.30;;;12.93;;
52025;SDS011;38041;40.058;18.328;2022-10-16T00:51:34;17.77;;;11.65;;
52025;SDS011;38041;40.058;18.328;2022-10-16T00:54:03;20.77;;;12.13;;
52025;SDS011;38041;40.058;18.328;2022-10-16T00:56:31;18.83;;;12.10;;
52025;SDS011;38041;40.058;18.328;2022-10-16T00:59:01;21.37;;;13.47;;
52025;SDS011;38041;40.058;18.328;2022-10-16T01:01:30;20.10;;;13.03;;
52025;SDS011;38041;40.058;18.328;2022-10-16T01:03:58;26.77;;;13.30;;
52025;SDS011;38041;40.058;18.328;2022-10-16T01:06:35;20.10;;;13.17;;
52025;SDS011;38041;40.058;18.328;2022-10-16T01:09:23;23.13;;;14.20;;
52025;SDS011;38041;40.058;18.328;2022-10-16T01:11:57;21.33;;;14.13;;
52025;SDS011;38041;40.058;18.328;2022-10-16T01:16:58;21.07;;;14.57;;
52025;SDS011;38041;40.058;18.328;2022-10-16T01:19:35;22.37;;;13.80;;
52025;SDS011;38041;40.058;18.328;2022-10-16T01:22:06;25.13;;;15.07;;
52025;SDS011;38041;40.058;18.328;2022-10-16T01:24:39;23.47;;;15.17;;
52025;SDS011;38041;40.058;18.328;2022-10-16T01:32:16;28.00;;;18.97;;
52025;SDS011;38041;40.058;18.328;2022-10-16T01:37:18;32.47;;;18.33;;
52025;SDS011;38041;40.058;18.328;2022-10-16T01:39:48;28.83;;;18.37;;
52025;SDS011;38041;40.058;18.328;2022-10-16T01:42:24;25.87;;;17.30;;
52025;SDS011;38041;40.058;18.328;2022-10-16T01:44:54;20.90;;;15.40;;
52025;SDS011;38041;40.058;18.328;2022-10-16T01:47:23;20.30;;;13.70;;
52025;SDS011;38041;40.058;18.328;2022-10-16T01:49:52;24.97;;;14.90;;
52025;SDS011;38041;40.058;18.328;2022-10-16T01:52:21;21.83;;;14.27;;
52025;SDS011;38041;40.058;18.328;2022-10-16T01:54:51;25.30;;;16.13;;
52025;SDS011;38041;40.058;18.328;2022-10-16T01:57:20;24.63;;;14.70;;
52025;SDS011;38041;40.058;18.328;2022-10-16T01:59:49;19.03;;;13.90;;
52025;SDS011;38041;40.058;18.328;2022-10-16T02:02:19;23.53;;;15.30;;
52025;SDS011;38041;40.058;18.328;2022-10-16T02:04:58;23.93;;;15.07;;
52025;SDS011;38041;40.058;18.328;2022-10-16T02:07:29;27.87;;;16.43;;
52025;SDS011;38041;40.058;18.328;2022-10-16T02:09:56;23.23;;;16.77;;
52025;SDS011;38041;40.058;18.328;2022-10-16T02:12:28;25.17;;;16.53;;
52025;SDS011;38041;40.058;18.328;2022-10-16T02:14:57;24.97;;;16.23;;
52025;SDS011;38041;40.058;18.328;2022-10-16T02:17:25;26.70;;;16.90;;
52025;SDS011;38041;40.058;18.328;2022-10-16T02:19:53;33.03;;;17.87;;
52025;SDS011;38041;40.058;18.328;2022-10-16T02:22:24;25.40;;;16.77;;
52025;SDS011;38041;40.058;18.328;2022-10-16T02:29:55;25.90;;;15.67;;
52025;SDS011;38041;40.058;18.328;2022-10-16T02:32:27;29.90;;;15.67;;
52025;SDS011;38041;40.058;18.328;2022-10-16T02:34:57;25.13;;;15.63;;
52025;SDS011;38041;40.058;18.328;2022-10-16T02:37:26;24.53;;;15.23;;
52025;SDS011;38041;40.058;18.328;2022-10-16T02:39:55;26.33;;;18.07;;
52025;SDS011;38041;40.058;18.328;2022-10-16T02:42:27;25.40;;;16.23;;
52025;SDS011;38041;40.058;18.328;2022-10-16T02:44:55;22.97;;;15.17;;
52025;SDS011;38041;40.058;18.328;2022-10-16T02:47:23;23.30;;;16.10;;
52025;SDS011;38041;40.058;18.328;2022-10-16T02:49:50;29.23;;;16.67;;
52025;SDS011;38041;40.058;18.328;2022-10-16T02:52:18;24.53;;;16.80;;
52025;SDS011;38041;40.058;18.328;2022-10-16T02:54:45;26.47;;;19.10;;
52025;SDS011;38041;40.058;18.328;2022-10-16T02:57:13;27.53;;;18.57;;
52025;SDS011;38041;40.058;18.328;2022-10-16T02:59:41;29.20;;;18.87;;
52025;SDS011;38041;40.058;18.328;2022-10-16T03:02:08;28.07;;;19.07;;
52025;SDS011;38041;40.058;18.328;2022-10-16T03:04:36;31.07;;;17.70;;
52025;SDS011;38041;40.058;18.328;2022-10-16T03:07:04;30.83;;;18.70;;
52025;SDS011;38041;40.058;18.328;2022-10-16T03:09:31;33.70;;;20.40;;
52025;SDS011;38041;40.058;18.328;2022-10-16T03:11:59;32.37;;;19.13;;
52025;SDS011;38041;40.058;18.328;2022-10-16T03:14:27;29.07;;;18.90;;
52025;SDS011;38041;40.058;18.328;2022-10-16T03:16:54;32.90;;;19.93;;
52025;SDS011;38041;40.058;18.328;2022-10-16T03:19:22;30.70;;;19.50;;
52025;SDS011;38041;40.058;18.328;2022-10-16T03:21:50;35.87;;;21.43;;
52025;SDS011;38041;40.058;18.328;2022-10-16T03:24:17;32.93;;;21.73;;
52025;SDS011;38041;40.058;18.328;2022-10-16T03:26:45;34.53;;;21.80;;
52025;SDS011;38041;40.058;18.328;2022-10-16T03:29:13;32.03;;;21.17;;
52025;SDS011;38041;40.058;18.328;2022-10-16T03:31:40;31.83;;;21.20;;
52025;SDS011;38041;40.058;18.328;2022-10-16T03:34:08;34.40;;;21.87;;
52025;SDS011;38041;40.058;18.328;2022-10-16T03:36:36;32.27;;;19.37;;
52025;SDS011;38041;40.058;18.328;2022-10-16T03:39:04;29.63;;;20.10;;
52025;SDS011;38041;40.058;18.328;2022-10-16T03:41:31;30.17;;;18.50;;
52025;SDS011;38041;40.058;18.328;2022-10-16T03:43:59;26.17;;;19.27;;
52025;SDS011;38041;40.058;18.328;2022-10-16T03:46:26;28.40;;;19.07;;
52025;SDS011;38041;40.058;18.328;2022-10-16T03:48:54;27.40;;;17.93;;
52025;SDS011;38041;40.058;18.328;2022-10-16T03:51:22;29.83;;;19.00;;
52025;SDS011;38041;40.058;18.328;2022-10-16T03:53:49;26.67;;;19.17;;
52025;SDS011;38041;40.058;18.328;2022-10-16T03:56:17;30.13;;;19.10;;
52025;SDS011;38041;40.058;18.328;2022-10-16T03:58:45;27.17;;;18.40;;
52025;SDS011;38041;40.058;18.328;2022-10-16T04:01:12;26.97;;;19.10;;
52025;SDS011;38041;40.058;18.328;2022-10-16T04:03:40;24.60;;;15.97;;
52025;SDS011;38041;40.058;18.328;2022-10-16T04:06:08;26.73;;;17.07;;
52025;SDS011;38041;40.058;18.328;2022-10-16T04:08:35;25.47;;;16.63;;
52025;SDS011;38041;40.058;18.328;2022-10-16T04:11:03;25.97;;;16.93;;
52025;SDS011;38041;40.058;18.328;2022-10-16T04:13:31;22.40;;;15.17;;
52025;SDS011;38041;40.058;18.328;2022-10-16T04:15:58;28.87;;;17.27;;
52025;SDS011;38041;40.058;18.328;2022-10-16T04:18:26;25.33;;;17.43;;
52025;SDS011;38041;40.058;18.328;2022-10-16T04:20:54;30.50;;;18.67;;
52025;SDS011;38041;40.058;18.328;2022-10-16T04:23:22;30.03;;;18.93;;
52025;SDS011;38041;40.058;18.328;2022-10-16T04:25:50;27.20;;;19.00;;
52025;SDS011;38041;40.058;18.328;2022-10-16T04:28:18;29.57;;;20.33;;
52025;SDS011;38041;40.058;18.328;2022-10-16T04:30:45;31.53;;;21.47;;
52025;SDS011;38041;40.058;18.328;2022-10-16T04:33:13;30.53;;;20.27;;
52025;SDS011;38041;40.058;18.328;2022-10-16T04:35:40;34.53;;;22.37;;
52025;SDS011;38041;40.058;18.328;2022-10-16T04:38:08;37.17;;;22.00;;
52025;SDS011;38041;40.058;18.328;2022-10-16T04:40:36;38.40;;;23.30;;
52025;SDS011;38041;40.058;18.328;2022-10-16T04:43:04;41.97;;;23.57;;
52025;SDS011;38041;40.058;18.328;2022-10-16T04:45:32;41.07;;;24.40;;
52025;SDS011;38041;40.058;18.328;2022-10-16T04:48:00;41.37;;;25.83;;
52025;SDS011;38041;40.058;18.328;2022-10-16T04:50:27;41.37;;;25.93;;
52025;SDS011;38041;40.058;18.328;2022-10-16T04:53:05;37.30;;;26.07;;
52025;SDS011;38041;40.058;18.328;2022-10-16T04:55:33;38.43;;;25.47;;
52025;SDS011;38041;40.058;18.328;2022-10-16T04:58:01;41.07;;;26.50;;
52025;SDS011;38041;40.058;18.328;2022-10-16T05:00:29;40.90;;;25.67;;
52025;SDS011;38041;40.058;18.328;2022-10-16T05:02:57;42.77;;;27.07;;
52025;SDS011;38041;40.058;18.328;2022-10-16T05:05:27;44.80;;;28.07;;
52025;SDS011;38041;40.058;18.328;2022-10-16T05:07:55;40.03;;;25.90;;
52025;SDS011;38041;40.058;18.328;2022-10-16T05:10:22;40.93;;;26.87;;
52025;SDS011;38041;40.058;18.328;2022-10-16T05:12:50;35.77;;;24.57;;
52025;SDS011;38041;40.058;18.328;2022-10-16T05:15:18;36.77;;;25.13;;
52025;SDS011;38041;40.058;18.328;2022-10-16T05:17:45;35.90;;;23.83;;
52025;SDS011;38041;40.058;18.328;2022-10-16T05:20:13;43.33;;;26.70;;
52025;SDS011;38041;40.058;18.328;2022-10-16T05:22:41;41.97;;;27.13;;
52025;SDS011;38041;40.058;18.328;2022-10-16T05:25:08;40.90;;;25.63;;
52025;SDS011;38041;40.058;18.328;2022-10-16T05:27:36;43.53;;;27.93;;
52025;SDS011;38041;40.058;18.328;2022-10-16T05:30:04;38.87;;;25.87;;
52025;SDS011;38041;40.058;18.328;2022-10-16T05:32:33;41.60;;;27.40;;
52025;SDS011;38041;40.058;18.328;2022-10-16T05:35:00;43.50;;;27.93;;
52025;SDS011;38041;40.058;18.328;2022-10-16T05:37:28;40.43;;;27.73;;
52025;SDS011;38041;40.058;18.328;2022-10-16T05:39:56;44.13;;;28.53;;
52025;SDS011;38041;40.058;18.328;2022-10-16T05:42:23;46.30;;;30.70;;
52025;SDS011;38041;40.058;18.328;2022-10-16T05:44:51;45.87;;;29.20;;
52025;SDS011;38041;40.058;18.328;2022-10-16T05:47:18;43.87;;;29.57;;
52025;SDS011;38041;40.058;18.328;2022-10-16T05:49:47;43.53;;;29.87;;
52025;SDS011;38041;40.058;18.328;2022-10-16T05:52:15;39.20;;;26.47;;
52025;SDS011;38041;40.058;18.328;2022-10-16T05:54:42;42.60;;;27.57;;
52025;SDS011;38041;40.058;18.328;2022-10-16T05:57:10;46.83;;;28.57;;
52025;SDS011;38041;40.058;18.328;2022-10-16T05:59:38;42.80;;;28.40;;
52025;SDS011;38041;40.058;18.328;2022-10-16T06:02:05;47.90;;;30.00;;
52025;SDS011;38041;40.058;18.328;2022-10-16T06:04:33;44.70;;;28.90;;
52025;SDS011;38041;40.058;18.328;2022-10-16T06:07:01;49.43;;;31.03;;
52025;SDS011;38041;40.058;18.328;2022-10-16T06:09:28;41.97;;;30.23;;
52025;SDS011;38041;40.058;18.328;2022-10-16T06:11:56;46.50;;;31.87;;
52025;SDS011;38041;40.058;18.328;2022-10-16T06:14:24;48.70;;;31.43;;
52025;SDS011;38041;40.058;18.328;2022-10-16T06:16:51;45.13;;;30.50;;
52025;SDS011;38041;40.058;18.328;2022-10-16T06:19:19;45.07;;;29.60;;
52025;SDS011;38041;40.058;18.328;2022-10-16T06:21:47;47.73;;;32.43;;
52025;SDS011;38041;40.058;18.328;2022-10-16T06:24:14;45.07;;;32.13;;
52025;SDS011;38041;40.058;18.328;2022-10-16T06:26:42;43.47;;;29.83;;
52025;SDS011;38041;40.058;18.328;2022-10-16T06:29:10;50.67;;;33.53;;
52025;SDS011;38041;40.058;18.328;2022-10-16T06:31:37;52.60;;;33.27;;
52025;SDS011;38041;40.058;18.328;2022-10-16T06:34:05;51.53;;;32.87;;
52025;SDS011;38041;40.058;18.328;2022-10-16T06:36:36;54.93;;;35.63;;
52025;SDS011;38041;40.058;18.328;2022-10-16T06:39:04;51.77;;;34.30;;
52025;SDS011;38041;40.058;18.328;2022-10-16T06:41:33;47.37;;;32.23;;
52025;SDS011;38041;40.058;18.328;2022-10-16T06:44:14;47.53;;;32.60;;
52025;SDS011;38041;40.058;18.328;2022-10-16T06:46:41;51.77;;;34.50;;
52025;SDS011;38041;40.058;18.328;2022-10-16T06:49:09;46.37;;;32.37;;
52025;SDS011;38041;40.058;18.328;2022-10-16T06:51:37;53.23;;;35.80;;
52025;SDS011;38041;40.058;18.328;2022-10-16T06:54:07;61.50;;;39.37;;
52025;SDS011;38041;40.058;18.328;2022-10-16T06:56:35;49.40;;;33.70;;
52025;SDS011;38041;40.058;18.328;2022-10-16T06:59:03;57.40;;;39.10;;
52025;SDS011;38041;40.058;18.328;2022-10-16T07:01:30;66.27;;;45.90;;
52025;SDS011;38041;40.058;18.328;2022-10-16T07:03:58;53.87;;;36.80;;
52025;SDS011;38041;40.058;18.328;2022-10-16T07:06:27;51.00;;;36.87;;
52025;SDS011;38041;40.058;18.328;2022-10-16T07:08:57;62.60;;;41.50;;
52025;SDS011;38041;40.058;18.328;2022-10-16T07:11:25;61.80;;;42.10;;
52025;SDS011;38041;40.058;18.328;2022-10-16T07:13:53;49.73;;;34.30;;
52025;SDS011;38041;40.058;18.328;2022-10-16T07:16:22;63.30;;;44.33;;
52025;SDS011;38041;40.058;18.328;2022-10-16T07:18:50;47.37;;;32.97;;
52025;SDS011;38041;40.058;18.328;2022-10-16T07:21:24;51.73;;;35.53;;
52025;SDS011;38041;40.058;18.328;2022-10-16T07:23:53;51.80;;;35.47;;
52025;SDS011;38041;40.058;18.328;2022-10-16T07:26:22;60.97;;;41.70;;
52025;SDS011;38041;40.058;18.328;2022-10-16T07:28:50;59.73;;;40.73;;
52025;SDS011;38041;40.058;18.328;2022-10-16T07:31:19;52.60;;;36.23;;
52025;SDS011;38041;40.058;18.328;2022-10-16T07:33:47;51.23;;;35.00;;
52025;SDS011;38041;40.058;18.328;2022-10-16T07:36:15;57.00;;;41.60;;
52025;SDS011;38041;40.058;18.328;2022-10-16T07:38:44;55.57;;;39.13;;
52025;SDS011;38041;40.058;18.328;2022-10-16T07:41:13;40.80;;;29.57;;
52025;SDS011;38041;40.058;18.328;2022-10-16T07:43:45;51.37;;;39.40;;
52025;SDS011;38041;40.058;18.328;2022-10-16T07:46:12;45.93;;;32.17;;
52025;SDS011;38041;40.058;18.328;2022-10-16T07:48:40;46.63;;;34.53;;
52025;SDS011;38041;40.058;18.328;2022-10-16T07:51:13;48.30;;;33.53;;
52025;SDS011;38041;40.058;18.328;2022-10-16T07:53:41;54.90;;;36.17;;
52025;SDS011;38041;40.058;18.328;2022-10-16T07:56:09;43.20;;;30.42;;
52025;SDS011;38041;40.058;18.328;2022-10-16T07:58:36;43.73;;;32.53;;
52025;SDS011;38041;40.058;18.328;2022-10-16T08:01:05;61.30;;;42.63;;
52025;SDS011;38041;40.058;18.328;2022-10-16T08:03:33;51.30;;;35.10;;
52025;SDS011;38041;40.058;18.328;2022-10-16T08:06:01;46.72;;;33.05;;
52025;SDS011;38041;40.058;18.328;2022-10-16T08:08:29;46.70;;;32.35;;
52025;SDS011;38041;40.058;18.328;2022-10-16T08:10:57;25.13;;;19.33;;
52025;SDS011;38041;40.058;18.328;2022-10-16T08:13:24;30.42;;;22.85;;
52025;SDS011;38041;40.058;18.328;2022-10-16T08:15:53;24.58;;;19.23;;
52025;SDS011;38041;40.058;18.328;2022-10-16T08:18:21;29.15;;;20.77;;
52025;SDS011;38041;40.058;18.328;2022-10-16T08:20:54;37.63;;;25.40;;
52025;SDS011;38041;40.058;18.328;2022-10-16T08:23:23;27.98;;;18.73;;
52025;SDS011;38041;40.058;18.328;2022-10-16T08:25:53;25.98;;;18.48;;
52025;SDS011;38041;40.058;18.328;2022-10-16T08:28:21;35.75;;;26.70;;
52025;SDS011;38041;40.058;18.328;2022-10-16T08:30:49;29.67;;;23.10;;
52025;SDS011;38041;40.058;18.328;2022-10-16T08:33:16;23.08;;;18.48;;
52025;SDS011;38041;40.058;18.328;2022-10-16T08:35:53;30.88;;;21.85;;
52025;SDS011;38041;40.058;18.328;2022-10-16T08:38:21;31.38;;;23.27;;
52025;SDS011;38041;40.058;18.328;2022-10-16T08:40:48;37.20;;;28.63;;
52025;SDS011;38041;40.058;18.328;2022-10-16T08:48:20;25.83;;;19.65;;
52025;SDS011;38041;40.058;18.328;2022-10-16T08:50:50;20.38;;;15.30;;
52025;SDS011;38041;40.058;18.328;2022-10-16T08:53:29;24.30;;;18.55;;
52025;SDS011;38041;40.058;18.328;2022-10-16T08:55:57;25.50;;;18.08;;
52025;SDS011;38041;40.058;18.328;2022-10-16T08:58:29;28.60;;;20.70;;
52025;SDS011;38041;40.058;18.328;2022-10-16T09:01:01;28.77;;;22.80;;
52025;SDS011;38041;40.058;18.328;2022-10-16T09:08:42;28.05;;;21.75;;
52025;SDS011;38041;40.058;18.328;2022-10-16T09:16:35;40.17;;;27.23;;
52025;SDS011;38041;40.058;18.328;2022-10-16T09:21:41;42.95;;;31.73;;
52025;SDS011;38041;40.058;18.328;2022-10-16T09:24:19;37.05;;;26.27;;
52025;SDS011;38041;40.058;18.328;2022-10-16T09:26:49;52.65;;;34.60;;
52025;SDS011;38041;40.058;18.328;2022-10-16T09:29:17;44.35;;;28.90;;
52025;SDS011;38041;40.058;18.328;2022-10-16T09:31:51;24.08;;;16.15;;
52025;SDS011;38041;40.058;18.328;2022-10-16T09:34:33;76.90;;;54.70;;
52025;SDS011;38041;40.058;18.328;2022-10-16T09:37:07;29.40;;;20.20;;
52025;SDS011;38041;40.058;18.328;2022-10-16T09:39:47;31.27;;;19.88;;
52025;SDS011;38041;40.058;18.328;2022-10-16T09:42:21;59.05;;;40.67;;
52025;SDS011;38041;40.058;18.328;2022-10-16T09:44:51;58.25;;;43.13;;
52025;SDS011;38041;40.058;18.328;2022-10-16T09:47:23;22.30;;;15.85;;
52025;SDS011;38041;40.058;18.328;2022-10-16T09:49:56;23.73;;;17.67;;
52025;SDS011;38041;40.058;18.328;2022-10-16T09:52:26;22.80;;;15.50;;
52025;SDS011;38041;40.058;18.328;2022-10-16T09:57:21;25.75;;;19.27;;
52025;SDS011;38041;40.058;18.328;2022-10-16T09:59:51;47.15;;;32.22;;
52025;SDS011;38041;40.058;18.328;2022-10-16T10:02:20;33.78;;;21.02;;
52025;SDS011;38041;40.058;18.328;2022-10-16T10:04:51;32.17;;;21.58;;
52025;SDS011;38041;40.058;18.328;2022-10-16T10:07:24;28.75;;;19.23;;
52025;SDS011;38041;40.058;18.328;2022-10-16T10:09:53;45.38;;;31.02;;
52025;SDS011;38041;40.058;18.328;2022-10-16T10:12:26;56.38;;;40.65;;
52025;SDS011;38041;40.058;18.328;2022-10-16T10:14:55;36.88;;;26.95;;
52025;SDS011;38041;40.058;18.328;2022-10-16T10:17:24;27.13;;;17.38;;
52025;SDS011;38041;40.058;18.328;2022-10-16T10:22:39;22.77;;;14.88;;
52025;SDS011;38041;40.058;18.328;2022-10-16T10:35:24;33.83;;;24.15;;
52025;SDS011;38041;40.058;18.328;2022-10-16T10:45:46;12.43;;;10.05;;
52025;SDS011;38041;40.058;18.328;2022-10-16T10:48:19;15.95;;;11.55;;
52025;SDS011;38041;40.058;18.328;2022-10-16T11:01:24;15.52;;;12.10;;
52025;SDS011;38041;40.058;18.328;2022-10-16T11:04:11;16.35;;;10.88;;
52025;SDS011;38041;40.058;18.328;2022-10-16T11:09:49;12.82;;;8.55;;
52025;SDS011;38041;40.058;18.328;2022-10-16T11:12:36;9.27;;;5.47;;
52025;SDS011;38041;40.058;18.328;2022-10-16T11:17:33;16.58;;;10.40;;
52025;SDS011;38041;40.058;18.328;2022-10-16T11:20:11;11.18;;;6.07;;
52025;SDS011;38041;40.058;18.328;2022-10-16T11:22:42;15.30;;;11.25;;
52025;SDS011;38041;40.058;18.328;2022-10-16T11:27:40;16.50;;;9.48;;
52025;SDS011;38041;40.058;18.328;2022-10-16T11:30:14;8.55;;;5.15;;
52025;SDS011;38041;40.058;18.328;2022-10-16T11:36:21;23.92;;;10.93;;
52025;SDS011;38041;40.058;18.328;2022-10-16T11:41:06;14.93;;;6.78;;
52025;SDS011;38041;40.058;18.328;2022-10-16T11:43:38;10.95;;;5.75;;
52025;SDS011;38041;40.058;18.328;2022-10-16T11:46:15;24.95;;;9.70;;
52025;SDS011;38041;40.058;18.328;2022-10-16T11:48:59;9.00;;;5.90;;
52025;SDS011;38041;40.058;18.328;2022-10-16T11:56:48;6.32;;;5.55;;
52025;SDS011;38041;40.058;18.328;2022-10-16T12:02:13;6.82;;;5.35;;
52025;SDS011;38041;40.058;18.328;2022-10-16T12:04:43;9.90;;;8.13;;
52025;SDS011;38041;40.058;18.328;2022-10-16T12:07:13;11.60;;;7.68;;
52025;SDS011;38041;40.058;18.328;2022-10-16T12:09:42;13.63;;;8.20;;
52025;SDS011;38041;40.058;18.328;2022-10-16T12:15:03;10.65;;;7.40;;
52025;SDS011;38041;40.058;18.328;2022-10-16T12:17:41;11.32;;;7.72;;
52025;SDS011;38041;40.058;18.328;2022-10-16T12:25:36;11.93;;;8.57;;
52025;SDS011;38041;40.058;18.328;2022-10-16T12:30:40;10.48;;;6.75;;
52025;SDS011;38041;40.058;18.328;2022-10-16T12:33:25;8.98;;;7.28;;
52025;SDS011;38041;40.058;18.328;2022-10-16T12:35:53;11.90;;;8.43;;
52025;SDS011;38041;40.058;18.328;2022-10-16T12:38:29;9.98;;;7.85;;
52025;SDS011;38041;40.058;18.328;2022-10-16T12:46:41;12.00;;;8.05;;
52025;SDS011;38041;40.058;18.328;2022-10-16T12:48:50;11.38;;;9.15;;
52025;SDS011;38041;40.058;18.328;2022-10-16T12:51:35;13.60;;;11.15;;
52025;SDS011;38041;40.058;18.328;2022-10-16T12:59:45;10.20;;;7.63;;
52025;SDS011;38041;40.058;18.328;2022-10-16T13:01:56;13.95;;;10.50;;
52025;SDS011;38041;40.058;18.328;2022-10-16T13:12:25;10.18;;;7.40;;
52025;SDS011;38041;40.058;18.328;2022-10-16T13:15:01;13.30;;;7.55;;
52025;SDS011;38041;40.058;18.328;2022-10-16T13:17:42;7.13;;;6.28;;
52025;SDS011;38041;40.058;18.328;2022-10-16T13:25:22;7.93;;;7.10;;
52025;SDS011;38041;40.058;18.328;2022-10-16T13:30:23;7.85;;;6.20;;
52025;SDS011;38041;40.058;18.328;2022-10-16T13:32:54;7.30;;;6.15;;
52025;SDS011;38041;40.058;18.328;2022-10-16T13:35:25;8.75;;;6.90;;
52025;SDS011;38041;40.058;18.328;2022-10-16T13:38:08;8.00;;;7.03;;
52025;SDS011;38041;40.058;18.328;2022-10-16T13:43:19;9.63;;;4.75;;
52025;SDS011;38041;40.058;18.328;2022-10-16T13:45:54;9.52;;;5.88;;
52025;SDS011;38041;40.058;18.328;2022-10-16T13:48:22;5.50;;;4.93;;
52025;SDS011;38041;40.058;18.328;2022-10-16T13:50:59;7.78;;;3.47;;
52025;SDS011;38041;40.058;18.328;2022-10-16T13:53:27;7.30;;;3.72;;
52025;SDS011;38041;40.058;18.328;2022-10-16T13:55:57;13.52;;;2.92;;
52025;SDS011;38041;40.058;18.328;2022-10-16T13:58:26;3.47;;;2.20;;
52025;SDS011;38041;40.058;18.328;2022-10-16T14:01:02;3.88;;;1.80;;
52025;SDS011;38041;40.058;18.328;2022-10-16T14:03:32;5.15;;;1.88;;
52025;SDS011;38041;40.058;18.328;2022-10-16T14:06:01;2.15;;;1.13;;
52025;SDS011;38041;40.058;18.328;2022-10-16T14:08:30;4.97;;;1.50;;
52025;SDS011;38041;40.058;18.328;2022-10-16T14:11:01;6.55;;;5.35;;
52025;SDS011;38041;40.058;18.328;2022-10-16T14:15:57;4.43;;;3.05;;
52025;SDS011;38041;40.058;18.328;2022-10-16T14:18:27;8.13;;;5.97;;
52025;SDS011;38041;40.058;18.328;2022-10-16T14:21:02;17.73;;;13.93;;
52025;SDS011;38041;40.058;18.328;2022-10-16T14:23:35;6.60;;;4.90;;
52025;SDS011;38041;40.058;18.328;2022-10-16T14:28:40;8.18;;;5.97;;
52025;SDS011;38041;40.058;18.328;2022-10-16T14:31:31;8.05;;;4.38;;
52025;SDS011;38041;40.058;18.328;2022-10-16T14:33:57;3.13;;;2.85;;
52025;SDS011;38041;40.058;18.328;2022-10-16T14:36:26;7.60;;;6.82;;
52025;SDS011;38041;40.058;18.328;2022-10-16T14:41:25;3.30;;;3.00;;
52025;SDS011;38041;40.058;18.328;2022-10-16T14:43:54;10.07;;;5.10;;
52025;SDS011;38041;40.058;18.328;2022-10-16T14:46:27;10.07;;;7.88;;
52025;SDS011;38041;40.058;18.328;2022-10-16T14:48:58;3.00;;;2.80;;
52025;SDS011;38041;40.058;18.328;2022-10-16T14:51:27;7.13;;;6.03;;
52025;SDS011;38041;40.058;18.328;2022-10-16T14:53:55;5.93;;;4.32;;
52025;SDS011;38041;40.058;18.328;2022-10-16T14:56:28;2.17;;;1.27;;
52025;SDS011;38041;40.058;18.328;2022-10-16T14:58:57;10.98;;;9.48;;
52025;SDS011;38041;40.058;18.328;2022-10-16T15:01:24;3.10;;;2.10;;
52025;SDS011;38041;40.058;18.328;2022-10-16T15:03:52;9.38;;;6.68;;
52025;SDS011;38041;40.058;18.328;2022-10-16T15:06:21;6.00;;;5.45;;
52025;SDS011;38041;40.058;18.328;2022-10-16T15:08:49;3.00;;;1.90;;
52025;SDS011;38041;40.058;18.328;2022-10-16T15:11:17;3.78;;;2.55;;
52025;SDS011;38041;40.058;18.328;2022-10-16T15:13:45;5.25;;;1.40;;
52025;SDS011;38041;40.058;18.328;2022-10-16T15:16:14;7.35;;;5.75;;
52025;SDS011;38041;40.058;18.328;2022-10-16T15:18:43;5.43;;;3.15;;
52025;SDS011;38041;40.058;18.328;2022-10-16T15:21:22;10.70;;;8.82;;
52025;SDS011;38041;40.058;18.328;2022-10-16T15:23:51;3.35;;;2.97;;
52025;SDS011;38041;40.058;18.328;2022-10-16T15:26:19;8.93;;;7.25;;
52025;SDS011;38041;40.058;18.328;2022-10-16T15:28:46;45.25;;;39.22;;
52025;SDS011;38041;40.058;18.328;2022-10-16T15:31:14;4.00;;;3.70;;
52025;SDS011;38041;40.058;18.328;2022-10-16T15:33:42;16.15;;;12.93;;
52025;SDS011;38041;40.058;18.328;2022-10-16T15:36:10;3.80;;;3.35;;
52025;SDS011;38041;40.058;18.328;2022-10-16T15:38:38;8.27;;;6.72;;
52025;SDS011;38041;40.058;18.328;2022-10-16T15:41:05;2.72;;;1.80;;
52025;SDS011;38041;40.058;18.328;2022-10-16T15:43:33;6.38;;;5.22;;
52025;SDS011;38041;40.058;18.328;2022-10-16T15:46:05;7.10;;;4.47;;
52025;SDS011;38041;40.058;18.328;2022-10-16T15:48:33;25.55;;;20.33;;
52025;SDS011;38041;40.058;18.328;2022-10-16T15:51:04;19.70;;;16.98;;
52025;SDS011;38041;40.058;18.328;2022-10-16T15:53:33;9.77;;;7.53;;
52025;SDS011;38041;40.058;18.328;2022-10-16T15:56:04;6.53;;;2.60;;
52025;SDS011;38041;40.058;18.328;2022-10-16T15:58:33;7.97;;;7.18;;
52025;SDS011;38041;40.058;18.328;2022-10-16T16:01:01;14.80;;;11.43;;
52025;SDS011;38041;40.058;18.328;2022-10-16T16:03:30;17.88;;;14.15;;
52025;SDS011;38041;40.058;18.328;2022-10-16T16:06:04;25.13;;;20.63;;
52025;SDS011;38041;40.058;18.328;2022-10-16T16:08:32;7.40;;;5.65;;
52025;SDS011;38041;40.058;18.328;2022-10-16T16:11:04;4.68;;;3.30;;
52025;SDS011;38041;40.058;18.328;2022-10-16T16:13:32;4.78;;;3.28;;
52025;SDS011;38041;40.058;18.328;2022-10-16T16:16:00;4.70;;;2.22;;
52025;SDS011;38041;40.058;18.328;2022-10-16T16:18:28;8.30;;;5.82;;
52025;SDS011;38041;40.058;18.328;2022-10-16T16:20:55;11.05;;;3.10;;
52025;SDS011;38041;40.058;18.328;2022-10-16T16:23:23;6.72;;;4.95;;
52025;SDS011;38041;40.058;18.328;2022-10-16T16:26:11;6.85;;;2.55;;
52025;SDS011;38041;40.058;18.328;2022-10-16T16:28:39;6.72;;;3.58;;
52025;SDS011;38041;40.058;18.328;2022-10-16T16:31:07;6.00;;;3.90;;
52025;SDS011;38041;40.058;18.328;2022-10-16T16:33:35;5.32;;;4.05;;
52025;SDS011;38041;40.058;18.328;2022-10-16T16:36:04;7.72;;;3.80;;
52025;SDS011;38041;40.058;18.328;2022-10-16T16:38:34;5.53;;;4.38;;
52025;SDS011;38041;40.058;18.328;2022-10-16T16:41:18;5.25;;;3.10;;
52025;SDS011;38041;40.058;18.328;2022-10-16T16:43:47;5.20;;;4.57;;
52025;SDS011;38041;40.058;18.328;2022-10-16T16:46:14;9.98;;;4.00;;
52025;SDS011;38041;40.058;18.328;2022-10-16T16:48:43;11.75;;;8.85;;
52025;SDS011;38041;40.058;18.328;2022-10-16T16:51:12;11.60;;;8.07;;